Time;durP1;ratioP1;P1;durP2;ratioP2;P2;SDS_P1;SDS_P2;PMS_P1;PMS_P2;Temp;Humidity;BMP_temperature;BMP_pressure;BME280_temperature;BME280_humidity;BME280_pressure;Samples;Min_cycle;Max_cycle;Signal;HPM_P1;HPM_P2
2022/06/26 00:01:55;;;;;;;38.75;21.27;;;;;;;14.39;100.00;101336.56;5057486;28;20125;-74
2022/06/26 00:04:20;;;;;;;39.95;21.60;;;;;;;14.34;100.00;101333.47;5056191;28;20029;-73
2022/06/26 00:06:46;;;;;;;44.08;22.70;;;;;;;14.30;100.00;101340.13;5057583;28;20033;-73
2022/06/26 00:09:11;;;;;;;42.97;24.10;;;;;;;14.24;100.00;101338.06;5057762;28;20029;-74
2022/06/26 00:11:37;;;;;;;56.17;27.15;;;;;;;14.20;100.00;101337.53;5057825;28;20068;-74
2022/06/26 00:14:02;;;;;;;58.03;27.52;;;;;;;14.16;100.00;101341.50;5056310;28;20094;-73
2022/06/26 00:16:27;;;;;;;50.92;25.90;;;;;;;14.11;100.00;101347.28;5057564;28;20025;-73
2022/06/26 00:18:53;;;;;;;49.88;25.60;;;;;;;14.05;100.00;101342.53;5057388;28;20033;-73
2022/06/26 00:21:18;;;;;;;50.67;25.48;;;;;;;13.99;100.00;101356.53;5057253;28;20029;-73
2022/06/26 00:23:44;;;;;;;55.97;26.23;;;;;;;13.95;100.00;101348.94;5058128;28;20146;-74
2022/06/26 00:26:09;;;;;;;56.85;27.65;;;;;;;13.89;100.00;101345.03;5057508;28;20036;-74
2022/06/26 00:28:34;;;;;;;56.78;27.70;;;;;;;13.87;100.00;101352.38;5057603;28;20033;-74
2022/06/26 00:31:01;;;;;;;53.97;27.42;;;;;;;13.85;100.00;101359.69;5057478;28;20032;-74
2022/06/26 00:33:27;;;;;;;58.25;28.45;;;;;;;13.86;100.00;101364.06;5057469;28;20114;-74
2022/06/26 00:35:52;;;;;;;51.55;26.63;;;;;;;13.82;100.00;101358.13;5056093;28;20036;-74
2022/06/26 00:38:17;;;;;;;58.33;27.67;;;;;;;13.81;100.00;101361.81;5057301;28;20041;-74
2022/06/26 00:40:43;;;;;;;48.90;24.50;;;;;;;13.79;100.00;101365.63;5057825;28;20091;-74
2022/06/26 00:43:09;;;;;;;45.78;24.00;;;;;;;13.75;100.00;101365.91;5057475;28;20047;-73
2022/06/26 00:45:35;;;;;;;49.63;24.33;;;;;;;13.71;100.00;101366.38;5057548;28;20111;-74
2022/06/26 00:48:00;;;;;;;59.05;24.75;;;;;;;13.66;100.00;101349.91;5057799;28;20100;-74
2022/06/26 00:50:26;;;;;;;53.40;24.55;;;;;;;13.63;100.00;101342.19;5057385;28;20043;-73
2022/06/26 00:52:53;;;;;;;60.20;26.50;;;;;;;13.60;100.00;101355.84;5057059;28;20108;-74
2022/06/26 00:55:19;;;;;;;57.78;26.98;;;;;;;13.56;100.00;101353.47;5054983;28;20057;-74
2022/06/26 00:57:45;;;;;;;56.67;25.58;;;;;;;13.53;100.00;101351.06;5054025;28;20057;-74
2022/06/26 01:00:12;;;;;;;59.78;26.17;;;;;;;13.55;100.00;101346.44;5053936;28;20080;-76
2022/06/26 01:02:37;;;;;;;51.05;25.35;;;;;;;13.57;100.00;101344.47;5054043;28;20033;-74
2022/06/26 01:05:04;;;;;;;54.45;26.38;;;;;;;13.59;100.00;101349.66;5054405;28;20037;-74
2022/06/26 01:07:31;;;;;;;58.58;26.42;;;;;;;13.60;100.00;101340.66;5053885;28;20056;-74
2022/06/26 01:09:56;;;;;;;51.83;25.52;;;;;;;13.61;100.00;101339.66;5054321;28;20503;-74
2022/06/26 01:12:22;;;;;;;56.88;25.95;;;;;;;13.61;100.00;101350.34;5054075;28;20033;-73
2022/06/26 01:14:48;;;;;;;62.67;25.85;;;;;;;13.58;100.00;101353.31;5054252;28;20148;-73
2022/06/26 01:17:13;;;;;;;56.78;26.58;;;;;;;13.58;100.00;101348.81;5054294;28;20033;-74
2022/06/26 01:19:39;;;;;;;55.85;25.83;;;;;;;13.57;100.00;101354.31;5054246;28;20039;-73
2022/06/26 01:22:04;;;;;;;57.67;25.48;;;;;;;13.53;100.00;101361.78;5053489;28;20135;-73
2022/06/26 01:24:30;;;;;;;51.33;24.17;;;;;;;13.48;100.00;101361.38;5053783;28;20025;-74
2022/06/26 01:26:55;;;;;;;52.85;25.30;;;;;;;13.45;100.00;101359.00;5053763;28;20036;-74
2022/06/26 01:29:21;;;;;;;50.08;23.92;;;;;;;13.38;100.00;101365.91;5051976;28;20025;-74
2022/06/26 01:31:46;;;;;;;50.58;23.80;;;;;;;13.33;100.00;101358.28;5053494;28;20025;-73
2022/06/26 01:34:12;;;;;;;45.13;21.98;;;;;;;13.31;100.00;101364.75;5053151;28;20037;-73
2022/06/26 01:36:38;;;;;;;44.58;21.05;;;;;;;13.28;100.00;101360.53;5053269;28;20029;-74
2022/06/26 01:39:04;;;;;;;47.67;22.15;;;;;;;13.26;100.00;101372.38;5053171;28;20045;-74
2022/06/26 01:41:30;;;;;;;47.85;22.67;;;;;;;13.20;100.00;101366.59;5053095;28;20025;-74
2022/06/26 01:43:55;;;;;;;39.92;20.80;;;;;;;13.17;100.00;101369.56;5051526;28;20044;-74
2022/06/26 01:46:23;;;;;;;45.20;21.45;;;;;;;13.10;100.00;101373.78;5052883;28;20119;-74
2022/06/26 01:48:48;;;;;;;50.78;22.98;;;;;;;13.07;100.00;101374.06;5053162;28;20061;-74
2022/06/26 01:51:14;;;;;;;50.72;22.67;;;;;;;13.05;100.00;101366.22;5053155;28;20126;-74
2022/06/26 01:53:40;;;;;;;44.72;20.67;;;;;;;13.01;100.00;101364.78;5051283;28;20040;-74
2022/06/26 01:56:06;;;;;;;42.97;21.50;;;;;;;12.99;100.00;101365.94;5053297;28;20048;-74
2022/06/26 01:58:32;;;;;;;50.20;22.05;;;;;;;12.95;100.00;101359.19;5052976;28;20021;-74
2022/06/26 02:00:58;;;;;;;52.65;22.30;;;;;;;12.94;100.00;101362.84;5053149;28;20354;-74
2022/06/26 02:03:26;;;;;;;47.03;22.23;;;;;;;12.90;100.00;101366.78;5053234;28;20035;-75
2022/06/26 02:05:51;;;;;;;48.03;22.88;;;;;;;12.87;100.00;101359.91;5052882;28;20064;-74
2022/06/26 02:08:17;;;;;;;59.83;24.75;;;;;;;12.85;100.00;101369.88;5052260;28;20087;-74
2022/06/26 02:13:36;;;;;;;61.05;23.67;;;;;;;12.80;100.00;101369.47;5052817;28;20472;-74
2022/06/26 02:16:18;;;;;;;44.83;23.02;;;;;;;12.76;100.00;101365.38;5053410;28;20037;-74
2022/06/26 02:18:45;;;;;;;64.15;25.52;;;;;;;12.72;100.00;101367.50;5052993;28;20029;-74
2022/06/26 02:21:16;;;;;;;52.70;23.58;;;;;;;12.72;100.00;101361.28;5052565;28;20029;-74
2022/06/26 02:23:43;;;;;;;50.10;23.30;;;;;;;12.67;100.00;101356.38;5052908;28;20037;-74
2022/06/26 02:26:09;;;;;;;52.00;22.33;;;;;;;12.64;100.00;101354.00;5052654;28;20033;-74
2022/06/26 02:28:36;;;;;;;50.67;22.45;;;;;;;12.61;100.00;101359.63;5052552;28;20024;-74
2022/06/26 02:31:01;;;;;;;52.20;22.65;;;;;;;12.56;100.00;101354.69;5052632;28;20085;-75
2022/06/26 02:33:28;;;;;;;50.70;22.98;;;;;;;12.50;100.00;101357.94;5052295;28;20479;-75
2022/06/26 02:35:55;;;;;;;54.30;22.58;;;;;;;12.45;100.00;101354.81;5052371;28;20033;-74
2022/06/26 02:38:22;;;;;;;49.75;22.08;;;;;;;12.42;100.00;101361.28;5051971;28;20488;-74
2022/06/26 02:40:48;;;;;;;52.72;23.83;;;;;;;12.39;100.00;101356.25;5052272;28;20037;-74
2022/06/26 02:43:13;;;;;;;54.83;24.48;;;;;;;12.38;100.00;101357.22;5052160;28;20040;-74
2022/06/26 02:45:39;;;;;;;59.38;23.08;;;;;;;12.38;100.00;101353.72;5052692;28;20370;-74
2022/06/26 02:48:05;;;;;;;53.25;22.67;;;;;;;12.38;100.00;101353.72;5052349;28;20029;-74
2022/06/26 02:50:30;;;;;;;57.10;23.17;;;;;;;12.37;100.00;101357.34;5051824;28;20037;-73
2022/06/26 02:52:55;;;;;;;54.15;24.27;;;;;;;12.34;100.00;101363.78;5051949;28;20548;-73
2022/06/26 02:55:21;;;;;;;49.75;21.73;;;;;;;12.30;100.00;101357.03;5051755;28;20454;-73
2022/06/26 02:57:46;;;;;;;57.17;23.98;;;;;;;12.25;100.00;101353.97;5052186;28;20437;-74
2022/06/26 03:00:13;;;;;;;69.70;26.23;;;;;;;12.27;100.00;101365.31;5052073;28;20025;-73
2022/06/26 03:02:39;;;;;;;62.55;24.52;;;;;;;12.28;100.00;101373.19;5051432;28;20037;-75
2022/06/26 03:05:05;;;;;;;59.42;23.80;;;;;;;12.26;100.00;101363.66;5052212;28;20429;-74
2022/06/26 03:07:31;;;;;;;71.07;26.58;;;;;;;12.22;100.00;101363.06;5051831;28;20032;-74
2022/06/26 03:09:56;;;;;;;57.38;24.27;;;;;;;12.23;100.00;101367.44;5052162;28;20033;-74
2022/06/26 03:12:21;;;;;;;60.83;24.15;;;;;;;12.22;100.00;101383.56;5051996;28;20075;-74
2022/06/26 03:14:47;;;;;;;60.22;23.42;;;;;;;12.19;100.00;101373.19;5051542;28;20033;-74
2022/06/26 03:17:13;;;;;;;61.17;24.75;;;;;;;12.18;100.00;101374.97;5051696;28;20346;-74
2022/06/26 03:19:38;;;;;;;68.50;23.52;;;;;;;12.21;100.00;101384.53;5051153;28;20056;-74
2022/06/26 03:22:04;;;;;;;51.25;21.33;;;;;;;12.16;100.00;101388.47;5051522;28;20033;-74
2022/06/26 03:24:30;;;;;;;52.08;21.63;;;;;;;12.09;100.00;101387.34;5051166;28;20033;-74
2022/06/26 03:26:55;;;;;;;47.53;20.40;;;;;;;12.06;100.00;101394.75;5051877;28;20033;-74
2022/06/26 03:29:20;;;;;;;54.28;22.25;;;;;;;12.02;100.00;101394.19;5051913;28;20426;-74
2022/06/26 03:31:46;;;;;;;49.83;20.48;;;;;;;12.02;100.00;101386.19;5051542;28;20113;-74
2022/06/26 03:34:11;;;;;;;43.67;20.25;;;;;;;12.04;100.00;101383.38;5052023;28;20033;-74
2022/06/26 03:36:37;;;;;;;51.60;21.52;;;;;;;12.02;100.00;101385.31;5051539;28;20037;-74
2022/06/26 03:39:03;;;;;;;48.92;20.23;;;;;;;12.03;100.00;101395.84;5051516;28;20056;-74
2022/06/26 03:41:28;;;;;;;46.40;20.25;;;;;;;12.01;100.00;101395.16;5051254;28;20037;-74
2022/06/26 03:43:54;;;;;;;51.13;20.77;;;;;;;12.02;100.00;101398.66;5051376;28;20036;-74
2022/06/26 03:46:20;;;;;;;46.50;20.38;;;;;;;12.05;100.00;101396.59;5050104;28;20110;-74
2022/06/26 03:48:45;;;;;;;60.03;23.83;;;;;;;12.11;100.00;101403.22;5051402;28;20036;-74
2022/06/26 03:51:11;;;;;;;45.88;21.20;;;;;;;12.15;100.00;101404.59;5049854;28;20025;-74
2022/06/26 03:53:37;;;;;;;56.17;20.50;;;;;;;12.18;100.00;101404.34;5051107;28;20037;-74
2022/06/26 03:56:03;;;;;;;49.33;19.15;;;;;;;12.20;100.00;101409.56;5051435;28;20029;-74
2022/06/26 03:58:29;;;;;;;45.05;18.45;;;;;;;12.24;100.00;101408.28;5051360;28;20037;-74
2022/06/26 04:00:54;;;;;;;47.63;18.17;;;;;;;12.26;100.00;101411.69;5050962;28;20441;-74
2022/06/26 04:03:20;;;;;;;45.97;18.55;;;;;;;12.28;100.00;101399.88;5051374;28;20358;-74
2022/06/26 04:05:46;;;;;;;46.13;18.90;;;;;;;12.32;100.00;101409.28;5050885;28;20033;-74
2022/06/26 04:08:11;;;;;;;52.17;19.15;;;;;;;12.37;100.00;101416.06;5049745;28;20124;-74
2022/06/26 04:10:37;;;;;;;53.20;21.20;;;;;;;12.42;100.00;101417.34;5051406;28;20037;-75
2022/06/26 04:13:06;;;;;;;46.75;19.95;;;;;;;12.48;100.00;101422.13;5051115;28;20025;-74
2022/06/26 04:15:33;;;;;;;50.28;20.92;;;;;;;12.53;100.00;101421.72;5051385;28;20361;-74
2022/06/26 04:17:59;;;;;;;53.03;19.85;;;;;;;12.60;100.00;101428.19;5051272;28;20117;-74
2022/06/26 04:20:25;;;;;;;45.97;19.05;;;;;;;12.65;100.00;101420.59;5051025;28;20329;-74
2022/06/26 04:23:01;;;;;;;43.33;18.92;;;;;;;12.69;100.00;101416.69;5050921;28;20138;-74
2022/06/26 04:25:31;;;;;;;49.83;20.27;;;;;;;12.74;100.00;101424.25;5050792;28;20029;-74
2022/06/26 04:27:56;;;;;;;51.00;19.10;;;;;;;12.77;100.00;101433.84;5051144;28;20457;-74
2022/06/26 04:30:22;;;;;;;44.30;18.23;;;;;;;12.79;100.00;101442.53;5050596;28;20037;-74
2022/06/26 04:32:47;;;;;;;45.05;16.92;;;;;;;12.79;100.00;101453.22;5054643;28;20037;-73
2022/06/26 04:35:13;;;;;;;44.40;17.13;;;;;;;12.78;100.00;101471.06;5054652;28;20519;-74
2022/06/26 04:37:40;;;;;;;50.53;17.10;;;;;;;12.76;100.00;101459.66;5053204;28;20060;-74
2022/06/26 04:40:07;;;;;;;45.28;16.88;;;;;;;12.79;100.00;101463.91;5054735;28;20178;-73
2022/06/26 04:42:33;;;;;;;38.85;16.55;;;;;;;12.79;100.00;101459.38;5054951;28;20037;-73
2022/06/26 04:44:58;;;;;;;39.40;16.55;;;;;;;12.83;100.00;101470.66;5054319;28;20397;-74
2022/06/26 04:47:23;;;;;;;33.92;14.35;;;;;;;12.85;100.00;101468.69;5055004;28;20029;-74
2022/06/26 04:49:49;;;;;;;33.55;13.75;;;;;;;12.86;100.00;101463.19;5054417;28;20029;-74
2022/06/26 04:52:16;;;;;;;26.10;12.20;;;;;;;12.88;100.00;101471.94;5053930;28;20052;-74
2022/06/26 04:54:43;;;;;;;30.67;11.95;;;;;;;12.87;100.00;101478.25;5054211;28;20025;-75
2022/06/26 04:57:08;;;;;;;27.27;10.68;;;;;;;12.90;100.00;101493.16;5054179;28;20033;-74
2022/06/26 04:59:34;;;;;;;23.63;9.68;;;;;;;12.93;100.00;101492.03;5054603;28;20033;-73
2022/06/26 05:01:59;;;;;;;22.50;9.85;;;;;;;12.97;100.00;101493.44;5054042;28;20055;-73
2022/06/26 05:04:25;;;;;;;22.23;9.77;;;;;;;13.00;100.00;101499.38;5054466;28;20036;-74
2022/06/26 05:06:51;;;;;;;18.58;8.57;;;;;;;13.09;100.00;101488.81;5054431;28;20040;-74
2022/06/26 05:09:16;;;;;;;23.75;9.35;;;;;;;13.21;100.00;101495.69;5054229;28;20070;-73
2022/06/26 05:11:43;;;;;;;20.33;9.05;;;;;;;13.33;100.00;101488.38;5054022;28;20466;-74
2022/06/26 05:14:09;;;;;;;22.95;8.52;;;;;;;13.46;100.00;101491.66;5054228;28;20080;-73
2022/06/26 05:16:34;;;;;;;16.50;7.95;;;;;;;13.55;100.00;101498.84;5054313;28;20037;-74
2022/06/26 05:19:00;;;;;;;15.88;7.32;;;;;;;13.67;100.00;101498.66;5053897;28;20480;-74
2022/06/26 05:21:25;;;;;;;15.13;7.03;;;;;;;13.76;100.00;101495.13;5053947;28;20473;-74
2022/06/26 05:23:51;;;;;;;12.07;6.38;;;;;;;13.85;100.00;101498.75;5053939;28;20568;-73
2022/06/26 05:26:16;;;;;;;10.55;6.03;;;;;;;13.88;100.00;101498.47;5035795;28;20025;-74
2022/06/26 05:28:42;;;;;;;10.77;5.93;;;;;;;13.92;100.00;101491.84;5053853;28;20111;-73
2022/06/26 05:31:07;;;;;;;11.55;6.07;;;;;;;13.97;100.00;101494.91;5053625;28;20494;-74
2022/06/26 05:33:33;;;;;;;10.43;5.72;;;;;;;14.05;100.00;101497.72;5052418;28;20063;-73
2022/06/26 05:35:58;;;;;;;16.65;6.18;;;;;;;14.05;100.00;101484.34;5053529;28;20373;-73
2022/06/26 05:38:23;;;;;;;11.23;5.60;;;;;;;14.14;100.00;101485.31;5053466;28;20139;-73
2022/06/26 05:40:49;;;;;;;11.85;5.72;;;;;;;14.23;100.00;101489.78;5053187;28;20037;-74
2022/06/26 05:43:14;;;;;;;13.27;5.40;;;;;;;14.38;100.00;101502.69;5052669;28;20064;-74
2022/06/26 05:45:40;;;;;;;9.88;5.30;;;;;;;14.46;100.00;101500.97;5053529;28;20082;-73
2022/06/26 05:48:06;;;;;;;10.63;5.45;;;;;;;14.52;100.00;101504.03;5053432;28;20032;-73
2022/06/26 05:50:32;;;;;;;8.02;4.78;;;;;;;14.60;100.00;101507.63;5052862;28;20515;-73
2022/06/26 05:52:57;;;;;;;9.35;4.90;;;;;;;14.68;100.00;101506.09;5053667;28;20115;-73
2022/06/26 05:55:22;;;;;;;6.22;4.07;;;;;;;14.77;100.00;101516.72;5053101;28;20183;-73
2022/06/26 05:57:48;;;;;;;7.88;4.40;;;;;;;14.81;100.00;101514.63;5052929;28;20397;-73
2022/06/26 06:00:13;;;;;;;11.00;4.82;;;;;;;14.85;100.00;101521.31;5053008;28;20029;-73
2022/06/26 06:02:40;;;;;;;10.63;4.80;;;;;;;14.87;100.00;101518.50;5053064;28;20033;-74
2022/06/26 06:05:05;;;;;;;8.50;4.35;;;;;;;14.92;100.00;101529.63;5052596;28;20095;-74
2022/06/26 06:07:31;;;;;;;5.03;4.10;;;;;;;14.91;100.00;101526.13;5051683;28;20041;-73
2022/06/26 06:09:56;;;;;;;7.82;4.90;;;;;;;14.99;100.00;101522.66;5052734;28;20112;-73
2022/06/26 06:12:21;;;;;;;7.22;4.32;;;;;;;15.04;100.00;101532.94;5052941;28;20072;-74
2022/06/26 06:14:47;;;;;;;6.75;5.15;;;;;;;15.07;100.00;101533.47;5052904;28;20458;-74
2022/06/26 06:19:56;;;;;;;6.43;4.65;;;;;;;15.21;100.00;101529.44;5053005;28;20090;-74
2022/06/26 06:22:21;;;;;;;6.35;4.07;;;;;;;15.30;100.00;101531.19;5052923;28;20085;-74
2022/06/26 06:24:47;;;;;;;8.32;4.65;;;;;;;15.43;100.00;101532.63;5052988;28;20148;-74
2022/06/26 06:27:13;;;;;;;9.40;4.60;;;;;;;15.46;100.00;101540.38;5052381;28;20426;-74
2022/06/26 06:29:38;;;;;;;8.63;4.78;;;;;;;15.63;100.00;101544.88;5053066;28;20047;-74
2022/06/26 06:32:04;;;;;;;5.78;4.20;;;;;;;15.70;100.00;101555.81;5052503;28;20033;-74
2022/06/26 06:34:29;;;;;;;7.32;4.80;;;;;;;15.78;100.00;101576.53;5051385;28;20033;-73
2022/06/26 06:36:55;;;;;;;9.50;4.95;;;;;;;15.88;100.00;101577.28;5052132;28;20396;-74
2022/06/26 06:39:20;;;;;;;10.07;5.18;;;;;;;15.91;100.00;101568.09;5052618;28;20426;-74
2022/06/26 06:41:46;;;;;;;8.70;5.35;;;;;;;15.94;100.00;101583.88;5052128;28;20397;-74
2022/06/26 06:44:11;;;;;;;7.63;5.38;;;;;;;15.93;100.00;101588.41;5052179;28;20058;-74
2022/06/26 06:46:37;;;;;;;12.55;5.82;;;;;;;16.18;100.00;101600.16;5052424;28;20136;-74
2022/06/26 06:49:02;;;;;;;6.00;4.80;;;;;;;16.57;100.00;101604.25;5052386;28;20028;-74
2022/06/26 06:51:28;;;;;;;8.00;4.93;;;;;;;17.09;100.00;101606.84;5052688;28;20579;-74
2022/06/26 06:53:53;;;;;;;7.00;4.20;;;;;;;17.41;99.13;101601.72;5051844;28;20029;-75
2022/06/26 06:56:18;;;;;;;11.38;5.10;;;;;;;17.56;94.76;101607.28;5052465;28;20074;-74
2022/06/26 06:58:44;;;;;;;7.75;5.10;;;;;;;17.47;92.71;101606.44;5052348;28;20035;-73
2022/06/26 07:01:09;;;;;;;8.20;4.70;;;;;;;17.52;93.87;101614.84;5052226;28;20437;-74
2022/06/26 07:03:35;;;;;;;8.15;4.18;;;;;;;17.53;92.30;101616.53;5052241;28;20119;-74
2022/06/26 07:06:00;;;;;;;9.48;3.97;;;;;;;17.54;93.92;101623.59;5052076;28;20029;-74
2022/06/26 07:08:25;;;;;;;7.70;3.97;;;;;;;17.52;92.01;101622.91;5052247;28;20483;-73
2022/06/26 07:10:51;;;;;;;8.35;4.32;;;;;;;17.56;91.69;101626.94;5050753;28;20035;-73
2022/06/26 07:13:16;;;;;;;5.45;4.18;;;;;;;17.63;92.55;101627.16;5052071;28;20044;-73
2022/06/26 07:15:42;;;;;;;7.88;3.92;;;;;;;17.76;92.78;101622.09;5052105;28;20029;-73
2022/06/26 07:18:07;;;;;;;10.30;4.00;;;;;;;17.84;91.98;101620.41;5050525;28;20488;-73
2022/06/26 07:20:33;;;;;;;6.93;4.03;;;;;;;17.80;89.07;101620.75;5051797;28;20033;-73
2022/06/26 07:22:58;;;;;;;5.68;3.38;;;;;;;17.90;90.46;101617.94;5051774;28;20182;-72
2022/06/26 07:25:24;;;;;;;5.15;3.20;;;;;;;17.95;87.44;101618.25;5051989;28;20231;-75
2022/06/26 07:27:49;;;;;;;6.32;3.13;;;;;;;17.93;88.89;101620.28;5051661;28;20071;-74
2022/06/26 07:30:15;;;;;;;8.10;3.58;;;;;;;18.07;91.18;101618.75;5050055;28;20087;-75
2022/06/26 07:32:41;;;;;;;7.78;3.60;;;;;;;18.17;88.08;101625.81;5051862;28;20041;-75
2022/06/26 07:35:07;;;;;;;5.10;3.72;;;;;;;18.23;86.96;101625.97;5051986;28;20136;-75
2022/06/26 07:37:32;;;;;;;8.35;3.47;;;;;;;18.35;86.16;101631.00;5051835;28;20037;-77
2022/06/26 07:39:58;;;;;;;8.32;3.17;;;;;;;18.53;84.40;101630.81;5051953;28;20055;-79
2022/06/26 07:42:34;;;;;;;9.07;3.35;;;;;;;18.55;82.63;101635.00;5052103;28;20060;-79
2022/06/26 07:44:59;;;;;;;8.43;3.58;;;;;;;18.39;83.21;101625.13;5051903;28;20029;-78
2022/06/26 07:47:25;;;;;;;8.95;3.63;;;;;;;18.38;84.23;101625.28;5051707;28;20029;-78
2022/06/26 07:49:50;;;;;;;8.60;3.60;;;;;;;18.50;87.77;101627.44;5051758;28;20044;-76
2022/06/26 07:52:15;;;;;;;9.35;3.35;;;;;;;18.62;82.92;101644.09;5051461;28;20037;-79
2022/06/26 07:54:41;;;;;;;4.65;3.30;;;;;;;18.78;80.61;101635.13;5051649;28;20025;-81
2022/06/26 07:57:07;;;;;;;10.60;3.75;;;;;;;18.94;82.67;101631.53;5051594;28;20048;-82
2022/06/26 07:59:33;;;;;;;5.47;3.25;;;;;;;19.01;80.30;101632.50;5034128;28;20037;-81
2022/06/26 08:01:59;;;;;;;5.30;2.83;;;;;;;19.00;77.75;101635.38;5052395;28;20036;-81
2022/06/26 08:04:24;;;;;;;8.02;3.10;;;;;;;18.97;76.45;101636.59;5053179;28;20044;-80
2022/06/26 08:06:49;;;;;;;6.25;2.92;;;;;;;19.03;77.88;101635.88;5056450;28;20485;-82
2022/06/26 08:09:14;;;;;;;4.93;2.65;;;;;;;19.22;74.37;101636.47;5056374;28;20423;-83
2022/06/26 08:11:40;;;;;;;8.23;2.83;;;;;;;19.32;72.51;101634.38;5055604;28;20059;-80
2022/06/26 08:14:06;;;;;;;4.30;2.78;;;;;;;19.42;71.87;101652.19;5056460;28;20044;-83
2022/06/26 08:16:31;;;;;;;3.45;2.65;;;;;;;19.78;70.61;101652.50;5056205;28;20401;-82
2022/06/26 08:18:56;;;;;;;3.10;2.55;;;;;;;20.13;71.28;101655.59;5055100;28;20025;-81
2022/06/26 08:24:06;;;;;;;8.35;3.10;;;;;;;20.59;65.60;101654.63;5056615;28;20051;-84
2022/06/26 08:26:31;;;;;;;5.97;3.08;;;;;;;20.64;67.39;101648.66;5038640;28;20020;-84
2022/06/26 08:28:57;;;;;;;9.88;3.53;;;;;;;20.53;65.22;101644.56;5055950;28;20503;-84
2022/06/26 08:31:22;;;;;;;8.05;3.10;;;;;;;20.66;69.14;101642.09;5054282;28;20400;-83
2022/06/26 08:33:47;;;;;;;3.95;2.50;;;;;;;20.70;66.84;101640.66;5056414;28;20037;-84
2022/06/26 08:36:13;;;;;;;3.55;2.25;;;;;;;20.84;65.86;101647.13;5056164;28;20090;-81
2022/06/26 08:38:39;;;;;;;4.05;2.40;;;;;;;21.10;64.01;101637.66;5054735;28;20495;-78
2022/06/26 08:41:07;;;;;;;5.28;2.72;;;;;;;21.43;63.20;101643.44;5056574;28;20029;-82
2022/06/26 08:43:33;;;;;;;4.05;2.30;;;;;;;21.34;60.69;101646.47;5056101;28;20029;-79
2022/06/26 08:46:04;;;;;;;3.60;2.30;;;;;;;21.56;63.18;101648.19;5056151;28;20167;-79
2022/06/26 08:48:39;;;;;;;4.30;2.20;;;;;;;22.01;57.21;101659.66;5055607;28;20033;-81
2022/06/26 08:51:05;;;;;;;3.90;2.15;;;;;;;22.46;58.98;101653.97;5056322;28;20035;-80
2022/06/26 08:53:30;;;;;;;4.25;1.90;;;;;;;22.60;54.58;101656.78;5054168;28;20032;-79
2022/06/26 08:55:57;;;;;;;8.35;2.42;;;;;;;22.35;53.51;101652.66;5055323;28;20118;-80
2022/06/26 08:58:23;;;;;;;4.55;1.85;;;;;;;22.37;50.34;101660.59;5056030;28;20041;-79
2022/06/26 09:00:48;;;;;;;2.55;1.65;;;;;;;22.68;52.39;101657.47;5055393;28;20311;-79
2022/06/26 09:03:15;;;;;;;5.20;1.70;;;;;;;23.68;52.76;101657.03;5055534;28;20037;-81
2022/06/26 09:05:40;;;;;;;4.20;1.90;;;;;;;24.41;47.75;101653.50;5055488;28;20033;-81
2022/06/26 09:08:15;;;;;;;4.20;1.90;;;;;;;23.98;45.71;101653.13;5055728;28;20449;-80
2022/06/26 09:10:44;;;;;;;5.57;1.80;;;;;;;23.33;47.53;101650.88;5054531;28;20032;-84
2022/06/26 09:13:10;;;;;;;5.60;1.80;;;;;;;23.18;49.92;101645.63;5054981;28;20029;-83
2022/06/26 09:15:38;;;;;;;8.80;2.30;;;;;;;23.21;52.65;101651.50;5054465;28;20033;-83
2022/06/26 09:18:05;;;;;;;5.57;1.73;;;;;;;23.27;47.15;101657.13;5055668;28;20072;-80
2022/06/26 09:20:36;;;;;;;3.53;1.60;;;;;;;23.25;48.12;101651.91;5054361;28;20502;-81
2022/06/26 09:23:03;;;;;;;6.43;2.00;;;;;;;23.73;48.50;101664.56;5054738;28;20040;-80
2022/06/26 09:25:40;;;;;;;4.55;1.67;;;;;;;24.29;44.26;101660.63;5054495;28;20028;-80
2022/06/26 09:28:14;;;;;;;5.68;2.35;;;;;;;25.14;46.45;101667.94;5055082;28;20033;-82
2022/06/26 09:30:53;;;;;;;5.88;1.90;;;;;;;25.63;41.05;101658.31;5054998;28;20105;-78
2022/06/26 09:33:24;;;;;;;5.20;1.80;;;;;;;26.02;41.28;101656.38;5054476;28;20100;-81
2022/06/26 09:35:51;;;;;;;3.42;1.80;;;;;;;25.33;39.56;101667.06;5053667;28;20039;-80
2022/06/26 09:38:21;;;;;;;3.83;1.80;;;;;;;25.80;40.65;101663.22;5054140;28;20033;-82
2022/06/26 09:40:48;;;;;;;;;;;;;;;25.63;41.59;101671.06;5055026;28;20056;-82
2022/06/26 09:43:35;;;;;;;2.58;1.67;;;;;;;25.43;42.32;101679.38;5054210;28;19958;-82
2022/06/26 09:46:02;;;;;;;6.13;1.90;;;;;;;25.45;42.05;101663.66;5052973;28;20108;-79
2022/06/26 09:48:29;;;;;;;4.32;1.70;;;;;;;25.59;43.14;101667.13;5054119;28;20080;-81
2022/06/26 09:50:56;;;;;;;4.70;1.95;;;;;;;25.97;40.26;101666.22;5052566;28;20083;-80
2022/06/26 09:53:22;;;;;;;2.63;1.90;;;;;;;25.36;40.69;101671.22;5054001;28;20466;-80
2022/06/26 09:55:50;;;;;;;4.25;2.00;;;;;;;24.85;41.66;101675.59;5052437;28;20037;-79
2022/06/26 09:58:17;;;;;;;8.73;2.25;;;;;;;24.99;41.23;101677.25;5053401;28;20329;-76
2022/06/26 10:06:25;;;;;;;3.53;1.80;;;;;;;24.49;44.04;101678.81;5053834;28;20048;-79
2022/06/26 10:06:27;;;;;;;5.57;2.22;;;;;;;23.49;45.04;101677.66;5053829;28;20091;-76
2022/06/26 10:08:55;;;;;;;6.25;1.95;;;;;;;23.56;43.89;101678.53;5053415;28;20442;-77
2022/06/26 10:11:24;;;;;;;3.83;2.20;;;;;;;23.70;46.11;101676.66;5053826;28;20024;-77
2022/06/26 10:13:52;;;;;;;3.70;1.70;;;;;;;23.47;45.92;101682.47;5053456;28;20224;-77
2022/06/26 10:16:33;;;;;;;3.67;2.05;;;;;;;23.52;47.21;101677.25;5052242;28;20263;-78
2022/06/26 10:19:24;;;;;;;3.40;1.70;;;;;;;23.58;45.33;101681.84;5053797;28;20461;-76
2022/06/26 10:21:51;;;;;;;4.18;1.70;;;;;;;23.56;45.65;101674.97;5051185;28;20132;-76
2022/06/26 10:24:16;;;;;;;5.15;1.70;;;;;;;23.81;47.86;101682.53;5053442;28;20037;-76
2022/06/26 10:26:59;;;;;;;4.00;1.70;;;;;;;23.87;47.23;101685.31;5053163;28;20316;-77
2022/06/26 10:29:32;;;;;;;4.15;1.52;;;;;;;23.46;44.22;101683.50;5052358;28;20040;-77
2022/06/26 10:31:58;;;;;;;3.63;1.65;;;;;;;23.11;44.80;101678.16;5053203;28;20041;-77
2022/06/26 10:34:25;;;;;;;3.80;1.73;;;;;;;22.86;47.41;101686.78;5053820;28;20495;-77
2022/06/26 10:37:14;;;;;;;6.13;1.85;;;;;;;22.79;47.38;101680.47;5053036;28;20045;-76
2022/06/26 10:39:42;;;;;;;2.53;1.50;;;;;;;22.61;45.08;101680.16;5053063;28;20465;-76
2022/06/26 10:45:35;;;;;;;5.70;1.80;;;;;;;22.16;46.12;101689.38;5053094;28;20547;-75
2022/06/26 10:48:06;;;;;;;4.57;1.73;;;;;;;22.41;47.61;101685.44;5053069;28;20052;-76
2022/06/26 10:50:36;;;;;;;4.30;1.80;;;;;;;22.74;47.42;101679.41;5053101;28;20029;-76
2022/06/26 10:53:18;;;;;;;5.63;2.35;;;;;;;23.24;46.84;101678.22;5052412;28;20443;-75
2022/06/26 10:56:01;;;;;;;3.25;1.77;;;;;;;23.31;42.67;101672.81;5052619;28;20089;-75
2022/06/26 10:58:29;;;;;;;7.45;2.10;;;;;;;23.55;43.60;101668.69;5052281;28;20120;-76
2022/06/26 11:00:58;;;;;;;4.03;1.60;;;;;;;23.13;45.66;101686.09;5052628;28;20454;-75
2022/06/26 11:03:25;;;;;;;4.15;1.70;;;;;;;23.13;43.35;101677.97;5052481;28;20450;-76
2022/06/26 11:05:59;;;;;;;6.22;1.50;;;;;;;23.08;46.98;101686.69;5052868;28;20104;-75
2022/06/26 11:08:32;;;;;;;3.28;1.52;;;;;;;23.15;44.01;101689.44;5052401;28;20031;-76
2022/06/26 11:11:09;;;;;;;3.97;1.73;;;;;;;23.13;45.62;101686.09;5052813;28;20029;-75
2022/06/26 11:13:36;;;;;;;5.57;2.20;;;;;;;23.13;43.18;101680.69;5052431;28;20108;-75
2022/06/26 11:16:03;;;;;;;3.55;1.63;;;;;;;23.07;45.33;101679.56;5051519;28;20146;-75
2022/06/26 11:18:36;;;;;;;3.75;1.70;;;;;;;23.14;45.19;101675.06;5052109;28;20044;-75
2022/06/26 11:21:02;;;;;;;3.65;1.70;;;;;;;23.73;46.86;101670.81;5052766;28;20110;-75
2022/06/26 11:23:31;;;;;;;4.28;1.80;;;;;;;24.37;46.62;101674.00;5052189;28;20037;-75
2022/06/26 11:26:02;;;;;;;4.00;1.80;;;;;;;24.64;43.91;101668.56;5052392;28;20511;-75